Time;durP1;ratioP1;P1;durP2;ratioP2;P2;SDS_P1;SDS_P2;PMS_P1;PMS_P2;Temp;Humidity;BMP_temperature;BMP_pressure;BME280_temperature;BME280_humidity;BME280_pressure;Samples;Min_cycle;Max_cycle;Signal;HPM_P1;HPM_P2
2023/09/19 00:02:17;;;;;;;7.07;1.73;;;13.90;99.90;;;;;;5048087;28;20079;-71
2023/09/19 00:04:43;;;;;;;6.38;2.17;;;13.80;99.90;;;;;;5048960;28;20047;-71
2023/09/19 00:07:09;;;;;;;10.20;1.80;;;13.80;99.90;;;;;;5046307;28;20041;-71
2023/09/19 00:09:37;;;;;;;7.13;1.27;;;13.70;99.90;;;;;;5027491;28;20037;-70
2023/09/19 00:12:05;;;;;;;9.77;1.70;;;13.70;99.90;;;;;;5028552;28;20034;-71
2023/09/19 00:14:34;;;;;;;9.30;1.70;;;13.60;99.90;;;;;;5027523;28;20053;-71
2023/09/19 00:17:00;;;;;;;8.25;1.63;;;13.50;99.90;;;;;;5027746;28;20044;-73
2023/09/19 00:19:26;;;;;;;5.78;1.65;;;13.50;99.90;;;;;;5028241;28;20038;-70
2023/09/19 00:21:53;;;;;;;4.93;1.40;;;13.40;99.90;;;;;;5029257;28;20064;-70
2023/09/19 00:24:18;;;;;;;10.32;1.60;;;13.30;99.90;;;;;;5028471;28;20762;-71
2023/09/19 00:26:46;;;;;;;7.80;1.75;;;13.30;99.90;;;;;;5036344;28;20044;-71
2023/09/19 00:29:16;;;;;;;6.93;1.35;;;13.20;99.90;;;;;;5047622;28;20124;-70
2023/09/19 00:31:43;;;;;;;11.88;1.77;;;13.20;99.90;;;;;;5046731;28;20052;-71
2023/09/19 00:34:10;;;;;;;6.65;1.65;;;13.20;99.90;;;;;;5047641;28;20084;-71
2023/09/19 00:36:39;;;;;;;5.90;1.45;;;13.20;99.90;;;;;;5035626;28;20374;-70
2023/09/19 00:39:06;;;;;;;6.63;1.33;;;13.10;99.90;;;;;;5028123;28;20403;-71
2023/09/19 00:41:32;;;;;;;7.20;2.25;;;13.10;99.90;;;;;;5027817;28;20099;-71
2023/09/19 00:43:59;;;;;;;6.57;1.52;;;13.00;99.90;;;;;;5026935;28;20068;-70
2023/09/19 00:46:25;;;;;;;10.15;1.70;;;13.00;99.90;;;;;;5026733;28;20580;-71
2023/09/19 00:48:51;;;;;;;5.30;1.77;;;13.00;99.90;;;;;;5027198;28;20045;-70
2023/09/19 00:51:22;;;;;;;9.25;1.92;;;13.00;99.90;;;;;;5028636;28;20038;-70
2023/09/19 00:53:47;;;;;;;3.65;1.65;;;13.00;99.90;;;;;;5028289;28;20075;-71
2023/09/19 00:56:14;;;;;;;10.10;2.10;;;12.90;99.90;;;;;;5027372;28;20606;-70
2023/09/19 00:58:40;;;;;;;8.57;1.85;;;12.80;99.90;;;;;;5034682;28;20036;-72
2023/09/19 01:01:06;;;;;;;6.30;1.77;;;12.80;99.90;;;;;;5045755;28;20481;-69
2023/09/19 01:03:37;;;;;;;8.00;1.75;;;12.80;99.90;;;;;;5047122;28;20049;-71
2023/09/19 01:06:03;;;;;;;7.25;1.75;;;12.80;99.90;;;;;;5048830;28;20145;-71
2023/09/19 01:08:29;;;;;;;7.53;2.08;;;12.80;99.90;;;;;;5047947;28;20041;-72
2023/09/19 01:11:14;;;;;;;9.30;1.73;;;12.80;99.90;;;;;;5047529;28;20370;-70
2023/09/19 01:13:48;;;;;;;8.75;1.90;;;12.80;99.90;;;;;;5048340;28;20089;-71
2023/09/19 01:16:39;;;;;;;7.43;1.85;;;12.80;99.90;;;;;;5045967;28;20052;-70
2023/09/19 01:19:32;;;;;;;7.85;1.95;;;12.80;99.90;;;;;;5027150;28;20369;-71
2023/09/19 01:22:12;;;;;;;9.68;2.13;;;12.80;99.90;;;;;;5012122;28;20037;-70
2023/09/19 01:25:03;;;;;;;8.20;2.35;;;12.70;99.90;;;;;;5027648;28;20117;-70
2023/09/19 01:28:04;;;;;;;8.90;2.17;;;12.70;99.90;;;;;;5028487;28;20044;-70
2023/09/19 01:30:39;;;;;;;3.85;1.38;;;12.70;99.90;;;;;;5026006;28;20046;-71
2023/09/19 01:33:06;;;;;;;5.13;1.50;;;12.70;99.90;;;;;;5027385;28;20045;-70
2023/09/19 01:35:34;;;;;;;8.27;2.70;;;12.70;99.90;;;;;;5044185;28;20052;-70
2023/09/19 01:37:59;;;;;;;8.68;2.03;;;12.70;99.90;;;;;;5028126;28;20120;-70
2023/09/19 01:40:25;;;;;;;11.10;2.42;;;12.70;99.90;;;;;;5027377;28;20529;-71
2023/09/19 01:43:20;;;;;;;4.55;1.40;;;12.70;99.90;;;;;;5029434;28;20488;-70
2023/09/19 01:46:03;;;;;;;5.90;1.70;;;12.70;99.90;;;;;;5029743;28;20049;-69
2023/09/19 01:49:06;;;;;;;6.68;1.70;;;12.60;99.90;;;;;;5030482;28;20053;-70
2023/09/19 01:51:45;;;;;;;8.50;1.83;;;12.60;99.90;;;;;;5061373;28;20326;-70
2023/09/19 01:54:13;;;;;;;6.63;2.10;;;12.60;99.90;;;;;;5051079;28;20080;-69
2023/09/19 01:57:17;;;;;;;7.85;1.83;;;12.60;99.90;;;;;;5050814;28;20041;-69
2023/09/19 01:59:59;;;;;;;5.88;1.92;;;12.50;99.90;;;;;;5028904;28;20218;-70
2023/09/19 02:02:25;;;;;;;6.82;1.70;;;12.50;99.90;;;;;;5050640;28;20057;-69
2023/09/19 02:04:51;;;;;;;11.00;2.38;;;12.50;99.90;;;;;;5050901;28;20043;-70
2023/09/19 02:07:17;;;;;;;8.70;1.90;;;12.40;99.90;;;;;;5053195;28;20040;-69
2023/09/19 02:09:42;;;;;;;9.68;1.95;;;12.40;99.90;;;;;;5016489;28;20071;-70
2023/09/19 02:12:09;;;;;;;7.57;2.03;;;12.40;99.90;;;;;;5030672;28;20129;-69
2023/09/19 02:14:36;;;;;;;7.22;1.85;;;12.40;99.90;;;;;;5013269;28;20132;-70
2023/09/19 02:17:05;;;;;;;8.98;2.17;;;12.40;99.90;;;;;;5029958;28;20478;-69
2023/09/19 02:19:32;;;;;;;10.93;2.58;;;12.40;99.90;;;;;;5030463;28;20037;-69
2023/09/19 02:21:58;;;;;;;14.15;2.38;;;12.30;99.90;;;;;;5031469;28;20091;-68
2023/09/19 02:24:24;;;;;;;5.85;1.70;;;12.30;99.90;;;;;;5030095;28;20072;-69
2023/09/19 02:26:49;;;;;;;8.48;2.38;;;12.30;99.90;;;;;;5029703;28;20053;-70
2023/09/19 02:29:15;;;;;;;9.68;2.13;;;12.30;99.90;;;;;;5029890;28;20048;-70
2023/09/19 02:31:41;;;;;;;8.77;2.10;;;12.30;99.90;;;;;;5029529;28;20041;-68
2023/09/19 02:34:06;;;;;;;6.60;2.40;;;12.30;99.90;;;;;;5029714;28;20102;-70
2023/09/19 02:36:32;;;;;;;13.98;2.45;;;12.30;99.90;;;;;;5030710;28;20490;-69
2023/09/19 02:38:57;;;;;;;5.82;2.15;;;12.30;99.90;;;;;;5032026;28;20048;-69
2023/09/19 02:41:23;;;;;;;11.02;2.33;;;12.30;99.90;;;;;;5031310;28;20048;-69
2023/09/19 02:43:48;;;;;;;6.93;2.33;;;12.30;99.90;;;;;;5029574;28;20060;-70
2023/09/19 02:46:14;;;;;;;6.22;1.75;;;12.20;99.90;;;;;;5028141;28;20033;-69
2023/09/19 02:48:40;;;;;;;6.70;1.90;;;12.20;99.90;;;;;;5029260;28;20128;-69
2023/09/19 02:51:06;;;;;;;7.05;2.17;;;12.20;99.90;;;;;;5030481;28;20046;-69
2023/09/19 02:53:32;;;;;;;7.50;2.17;;;12.20;99.90;;;;;;5030001;28;20057;-69
2023/09/19 02:55:58;;;;;;;9.40;2.30;;;12.20;99.90;;;;;;5029492;28;20050;-69
2023/09/19 02:58:24;;;;;;;8.48;2.47;;;12.20;99.90;;;;;;5031341;28;20164;-69
2023/09/19 03:00:51;;;;;;;16.25;3.10;;;12.20;99.90;;;;;;5041495;28;20456;-69
2023/09/19 03:03:17;;;;;;;8.88;1.83;;;12.20;99.90;;;;;;5028424;28;20057;-69
2023/09/19 03:05:47;;;;;;;7.60;2.47;;;12.20;99.90;;;;;;5031748;28;20054;-69
2023/09/19 03:08:14;;;;;;;11.77;2.00;;;12.20;99.90;;;;;;5029939;28;20346;-70
2023/09/19 03:10:40;;;;;;;8.93;2.40;;;12.20;99.90;;;;;;5030498;28;20041;-71
2023/09/19 03:13:09;;;;;;;9.32;1.77;;;12.10;99.90;;;;;;5030337;28;20045;-69
2023/09/19 03:15:38;;;;;;;11.10;2.70;;;12.20;99.90;;;;;;5028341;28;20393;-70
2023/09/19 03:18:04;;;;;;;7.63;2.15;;;12.20;99.90;;;;;;5028479;28;20474;-68
2023/09/19 03:20:30;;;;;;;10.40;2.30;;;12.20;99.90;;;;;;5044830;28;20041;-69
2023/09/19 03:22:57;;;;;;;7.97;2.10;;;12.20;99.90;;;;;;5050109;28;20055;-70
2023/09/19 03:25:23;;;;;;;9.07;2.30;;;12.20;99.90;;;;;;5048880;28;20072;-68
2023/09/19 03:27:48;;;;;;;8.65;2.45;;;12.20;99.90;;;;;;5051304;28;20044;-69
2023/09/19 03:30:14;;;;;;;8.00;1.65;;;12.20;99.90;;;;;;5047163;28;20140;-69
2023/09/19 03:32:47;;;;;;;10.88;2.35;;;12.20;99.90;;;;;;5048557;28;20057;-69
2023/09/19 03:35:14;;;;;;;8.93;2.08;;;12.20;99.90;;;;;;5047273;28;20094;-69
2023/09/19 03:37:41;;;;;;;7.15;2.15;;;12.20;99.90;;;;;;5049709;28;20046;-71
2023/09/19 03:40:07;;;;;;;14.27;2.55;;;12.20;99.90;;;;;;5048386;28;20041;-69
2023/09/19 03:42:35;;;;;;;6.70;2.10;;;12.20;99.90;;;;;;5049076;28;20104;-69
2023/09/19 03:45:04;;;;;;;10.60;2.17;;;12.20;99.90;;;;;;5046935;28;20117;-68
2023/09/19 03:47:29;;;;;;;9.40;2.00;;;12.20;99.90;;;;;;5048434;28;20436;-70
2023/09/19 03:49:55;;;;;;;9.93;2.00;;;12.20;99.90;;;;;;5048371;28;20066;-69
2023/09/19 03:52:20;;;;;;;9.98;1.92;;;12.30;99.90;;;;;;5049482;28;20455;-68
2023/09/19 03:54:46;;;;;;;5.75;1.83;;;12.30;99.90;;;;;;5047005;28;20048;-69
2023/09/19 03:57:15;;;;;;;7.68;1.95;;;12.20;99.90;;;;;;5048539;28;20041;-69
2023/09/19 03:59:42;;;;;;;10.63;2.13;;;12.30;99.90;;;;;;5047199;28;20053;-68
2023/09/19 04:02:13;;;;;;;8.32;2.10;;;12.30;99.90;;;;;;5047367;28;20056;-69
2023/09/19 04:04:38;;;;;;;11.13;3.33;;;12.20;99.90;;;;;;5048083;28;20041;-69
2023/09/19 04:07:04;;;;;;;12.30;2.67;;;12.20;99.90;;;;;;5050315;28;20048;-68
2023/09/19 04:09:29;;;;;;;9.98;1.85;;;12.20;99.90;;;;;;5046300;28;20045;-68
2023/09/19 04:11:55;;;;;;;8.02;2.00;;;12.20;99.90;;;;;;5029809;28;20033;-68
2023/09/19 04:14:20;;;;;;;9.73;2.08;;;12.20;99.90;;;;;;5028132;28;20037;-69
2023/09/19 04:16:46;;;;;;;6.10;1.95;;;12.20;99.90;;;;;;5027311;28;20137;-69
2023/09/19 04:19:12;;;;;;;5.32;1.92;;;12.20;99.90;;;;;;5011866;28;20394;-69
2023/09/19 04:21:38;;;;;;;5.82;1.98;;;12.20;99.90;;;;;;5028756;28;20033;-69
2023/09/19 04:24:03;;;;;;;8.48;2.35;;;12.20;99.90;;;;;;5028057;28;20438;-68
2023/09/19 04:26:29;;;;;;;11.10;1.90;;;12.20;99.90;;;;;;5042232;28;20485;-70
2023/09/19 04:28:56;;;;;;;11.15;1.90;;;12.20;99.90;;;;;;5047903;28;20103;-68
2023/09/19 04:31:22;;;;;;;6.15;1.80;;;12.20;99.90;;;;;;5046257;28;20127;-68
2023/09/19 04:33:47;;;;;;;6.55;1.92;;;12.30;99.90;;;;;;5030720;28;20388;-68
2023/09/19 04:36:13;;;;;;;10.52;2.47;;;12.40;99.90;;;;;;5048210;28;20140;-68
2023/09/19 04:38:39;;;;;;;8.55;1.80;;;12.40;99.90;;;;;;5048125;28;20377;-68
2023/09/19 04:41:05;;;;;;;7.85;2.17;;;12.40;99.90;;;;;;5047571;28;20041;-68
2023/09/19 04:43:30;;;;;;;6.15;2.00;;;12.50;99.90;;;;;;5047020;28;20083;-68
2023/09/19 04:45:56;;;;;;;8.40;2.40;;;12.50;99.90;;;;;;5010535;28;20048;-68
2023/09/19 04:48:25;;;;;;;7.20;2.30;;;12.60;99.90;;;;;;5028297;28;20607;-68
2023/09/19 04:50:51;;;;;;;6.40;2.20;;;12.60;99.90;;;;;;5028251;28;20195;-68
2023/09/19 04:53:20;;;;;;;8.02;2.38;;;12.60;99.90;;;;;;5028542;28;20088;-68
2023/09/19 04:55:49;;;;;;;8.93;2.28;;;12.60;99.90;;;;;;5027432;28;20065;-68
2023/09/19 04:58:14;;;;;;;12.40;3.05;;;12.70;99.90;;;;;;5011736;28;20037;-68
2023/09/19 05:00:40;;;;;;;6.32;2.33;;;12.70;99.90;;;;;;5026393;28;20048;-68
2023/09/19 05:03:06;;;;;;;9.30;2.17;;;12.70;99.90;;;;;;5039440;28;20063;-67
2023/09/19 05:05:31;;;;;;;12.48;2.47;;;12.80;99.90;;;;;;5031765;28;20051;-68
2023/09/19 05:07:57;;;;;;;10.63;2.38;;;12.70;99.90;;;;;;5048344;28;20079;-69
2023/09/19 05:10:22;;;;;;;8.55;2.60;;;12.80;99.90;;;;;;5046620;28;20053;-69
2023/09/19 05:12:48;;;;;;;10.02;2.53;;;12.80;99.90;;;;;;5048204;28;20033;-69
2023/09/19 05:15:14;;;;;;;9.25;2.90;;;12.80;99.90;;;;;;5045819;28;20063;-68
2023/09/19 05:17:40;;;;;;;15.25;2.88;;;12.80;99.90;;;;;;5043566;28;20108;-69
2023/09/19 05:20:29;;;;;;;12.18;3.30;;;12.80;99.90;;;;;;5050670;28;20097;-70
2023/09/19 05:23:13;;;;;;;9.55;2.40;;;12.80;99.90;;;;;;5051781;28;20408;-69
2023/09/19 05:25:39;;;;;;;11.43;3.10;;;12.80;99.90;;;;;;5051164;28;20041;-70
2023/09/19 05:28:15;;;;;;;9.02;2.60;;;12.80;99.90;;;;;;5051485;28;20163;-69
2023/09/19 05:30:42;;;;;;;8.20;2.20;;;12.80;99.90;;;;;;5049619;28;20060;-69
2023/09/19 05:33:08;;;;;;;8.90;2.47;;;12.80;99.90;;;;;;5049216;28;20045;-69
2023/09/19 05:35:36;;;;;;;6.47;2.15;;;12.80;99.90;;;;;;5048438;28;20063;-69
2023/09/19 05:38:02;;;;;;;10.45;2.75;;;12.80;99.90;;;;;;5050658;28;20068;-69
2023/09/19 05:40:28;;;;;;;17.35;3.00;;;12.80;99.90;;;;;;5038233;28;20355;-69
2023/09/19 05:42:53;;;;;;;10.38;2.10;;;12.80;99.90;;;;;;5031334;28;20072;-70
2023/09/19 05:45:22;;;;;;;11.30;3.08;;;12.80;99.90;;;;;;5044539;28;20052;-69
2023/09/19 05:47:55;;;;;;;12.05;2.78;;;12.80;99.90;;;;;;5030014;28;20129;-70
2023/09/19 05:50:21;;;;;;;10.65;2.55;;;12.80;99.90;;;;;;5030809;28;20477;-70
2023/09/19 05:52:53;;;;;;;12.23;2.47;;;12.80;99.90;;;;;;5015019;28;20133;-68
2023/09/19 05:55:20;;;;;;;10.90;3.53;;;12.80;99.90;;;;;;5030149;28;20517;-69
2023/09/19 05:57:52;;;;;;;14.73;3.40;;;12.80;99.90;;;;;;5024480;28;20441;-70
2023/09/19 06:00:23;;;;;;;11.18;2.53;;;12.80;99.90;;;;;;5048409;28;20362;-70
2023/09/19 06:02:53;;;;;;;11.85;2.40;;;12.80;99.90;;;;;;5033264;28;20075;-70
2023/09/19 06:05:19;;;;;;;14.55;3.20;;;12.70;99.90;;;;;;5040134;28;20041;-70
2023/09/19 06:07:45;;;;;;;11.05;2.08;;;12.70;99.90;;;;;;5031230;28;20529;-70
2023/09/19 06:10:11;;;;;;;9.88;2.33;;;12.70;99.90;;;;;;5029516;28;20165;-70
2023/09/19 06:12:40;;;;;;;10.15;2.33;;;12.70;99.90;;;;;;5030772;28;20478;-69
2023/09/19 06:15:08;;;;;;;7.07;1.92;;;12.60;99.90;;;;;;5027515;28;20050;-69
2023/09/19 06:17:37;;;;;;;10.40;2.38;;;12.60;99.90;;;;;;5037791;28;20055;-69
2023/09/19 06:20:12;;;;;;;15.07;2.72;;;12.60;99.90;;;;;;5032505;28;20056;-70
2023/09/19 06:22:38;;;;;;;11.30;2.38;;;12.60;99.90;;;;;;5036123;28;20115;-69
2023/09/19 06:25:04;;;;;;;11.15;2.45;;;12.60;99.90;;;;;;5024899;28;20088;-68
2023/09/19 06:27:30;;;;;;;13.75;2.47;;;12.60;99.90;;;;;;5028425;28;20087;-69
2023/09/19 06:29:55;;;;;;;10.43;2.40;;;12.70;99.90;;;;;;5027194;28;20155;-69
2023/09/19 06:32:27;;;;;;;11.13;2.55;;;12.80;99.90;;;;;;5029300;28;20505;-68
2023/09/19 06:34:54;;;;;;;11.57;3.15;;;13.00;99.90;;;;;;5028636;28;20132;-69
2023/09/19 06:37:20;;;;;;;13.48;2.17;;;13.10;99.90;;;;;;5050625;28;20140;-70
2023/09/19 06:39:49;;;;;;;10.30;2.30;;;13.30;99.90;;;;;;5049729;28;20532;-69
2023/09/19 06:42:17;;;;;;;12.43;2.63;;;13.40;99.90;;;;;;5049910;28;20587;-69
2023/09/19 06:44:43;;;;;;;8.57;1.88;;;13.40;99.90;;;;;;5048644;28;20144;-69
2023/09/19 06:47:12;;;;;;;6.03;1.98;;;13.40;99.90;;;;;;5048056;28;20191;-70
2023/09/19 06:49:38;;;;;;;10.32;2.67;;;13.40;99.90;;;;;;5048845;28;20104;-69
2023/09/19 06:52:04;;;;;;;12.60;2.42;;;13.50;99.90;;;;;;5050576;28;20049;-70
2023/09/19 06:54:31;;;;;;;6.15;1.80;;;13.50;99.90;;;;;;5032908;28;20049;-69
2023/09/19 06:56:58;;;;;;;11.20;1.90;;;13.70;99.90;;;;;;5050915;28;20037;-69
2023/09/19 06:59:24;;;;;;;9.50;1.63;;;13.80;99.90;;;;;;5049020;28;20491;-69
2023/09/19 07:01:50;;;;;;;9.30;1.90;;;13.90;99.90;;;;;;5048743;28;20036;-70
2023/09/19 07:04:19;;;;;;;11.95;2.25;;;14.00;99.90;;;;;;5049459;28;20490;-68
2023/09/19 07:06:49;;;;;;;6.93;2.20;;;14.10;99.90;;;;;;5050443;28;20053;-70
2023/09/19 07:09:15;;;;;;;12.10;2.30;;;14.30;99.90;;;;;;5049276;28;20041;-68
2023/09/19 07:11:41;;;;;;;7.30;1.90;;;14.30;99.90;;;;;;5050942;28;20561;-69
2023/09/19 07:14:06;;;;;;;7.00;1.70;;;14.40;99.90;;;;;;5049003;28;20166;-68
2023/09/19 07:16:32;;;;;;;8.90;2.03;;;14.40;99.90;;;;;;5048025;28;20407;-68
2023/09/19 07:18:57;;;;;;;7.07;1.73;;;14.50;99.90;;;;;;5032397;28;20056;-68
2023/09/19 07:21:24;;;;;;;15.45;1.83;;;14.50;99.90;;;;;;5049618;28;20052;-68
2023/09/19 07:23:50;;;;;;;6.85;1.98;;;14.60;99.90;;;;;;5049191;28;20055;-68
2023/09/19 07:26:16;;;;;;;7.60;1.80;;;14.60;99.90;;;;;;5048631;28;20136;-69
2023/09/19 07:28:42;;;;;;;9.10;2.22;;;14.60;99.90;;;;;;5049189;28;20047;-68
2023/09/19 07:31:09;;;;;;;8.00;2.00;;;14.60;99.90;;;;;;5030173;28;20040;-69
2023/09/19 07:33:36;;;;;;;7.88;1.77;;;14.70;99.90;;;;;;5048513;28;20358;-69
2023/09/19 07:36:01;;;;;;;8.18;1.95;;;14.80;99.90;;;;;;5050481;28;20045;-68
2023/09/19 07:38:27;;;;;;;7.85;1.85;;;14.90;99.90;;;;;;5049225;28;20060;-69
2023/09/19 07:40:53;;;;;;;6.93;1.70;;;15.10;99.90;;;;;;5031894;28;20079;-68
2023/09/19 07:43:18;;;;;;;4.72;1.52;;;15.10;99.90;;;;;;5049103;28;20056;-67
2023/09/19 07:45:44;;;;;;;7.18;1.83;;;15.20;99.90;;;;;;5047416;28;20048;-68
2023/09/19 07:48:15;;;;;;;11.60;1.95;;;15.10;99.90;;;;;;5047798;28;20045;-69
2023/09/19 07:50:43;;;;;;;9.02;2.10;;;15.10;99.90;;;;;;5048834;28;20388;-68
2023/09/19 07:53:08;;;;;;;7.93;2.25;;;15.00;99.90;;;;;;5049038;28;20102;-68
2023/09/19 07:55:34;;;;;;;10.18;1.88;;;14.90;99.90;;;;;;5048110;28;20045;-68
2023/09/19 07:58:00;;;;;;;7.88;2.13;;;14.90;99.90;;;;;;5048561;28;20123;-67
2023/09/19 08:00:26;;;;;;;11.93;2.35;;;14.90;99.90;;;;;;5046830;28;20134;-68
2023/09/19 08:02:54;;;;;;;8.30;2.35;;;14.80;99.90;;;;;;5047965;28;20088;-68
2023/09/19 08:05:20;;;;;;;11.52;1.70;;;14.80;99.90;;;;;;5048303;28;20558;-68
2023/09/19 08:07:48;;;;;;;9.93;1.85;;;14.90;99.90;;;;;;5049179;28;20040;-69
2023/09/19 08:10:15;;;;;;;8.40;2.17;;;14.90;99.90;;;;;;5048916;28;20513;-67
2023/09/19 08:12:48;;;;;;;10.38;2.30;;;15.00;99.90;;;;;;5048676;28;20048;-68
2023/09/19 08:15:19;;;;;;;12.05;2.20;;;15.10;99.90;;;;;;5046615;28;20175;-67
2023/09/19 08:17:45;;;;;;;11.13;2.28;;;15.30;99.90;;;;;;5048064;28;20098;-69
2023/09/19 08:20:18;;;;;;;4.88;1.80;;;15.20;99.90;;;;;;5048097;28;20076;-68
2023/09/19 08:22:49;;;;;;;5.68;1.92;;;15.20;99.90;;;;;;5048772;28;20064;-68
2023/09/19 08:25:17;;;;;;;;;;;15.20;99.90;;;;;;5047868;28;20401;-69
2023/09/19 08:27:47;;;;;;;5.75;1.83;;;15.30;99.90;;;;;;5048849;28;20027;-66
2023/09/19 08:30:14;;;;;;;9.98;2.35;;;15.30;99.90;;;;;;5029485;28;20048;-68
2023/09/19 08:32:42;;;;;;;9.90;1.90;;;15.50;99.90;;;;;;5047497;28;20385;-67
2023/09/19 08:35:09;;;;;;;6.68;1.58;;;15.50;99.90;;;;;;5047522;28;20063;-67
2023/09/19 08:37:35;;;;;;;7.57;2.38;;;15.60;99.90;;;;;;5048645;28;20041;-67
2023/09/19 08:40:00;;;;;;;8.48;2.00;;;15.70;99.90;;;;;;5047477;28;20044;-68
2023/09/19 08:42:26;;;;;;;7.28;2.53;;;15.90;99.90;;;;;;5048240;28;20037;-68
2023/09/19 08:44:54;;;;;;;11.10;2.63;;;16.00;99.90;;;;;;5046775;28;20502;-67
2023/09/19 08:47:32;;;;;;;7.40;2.17;;;16.20;99.90;;;;;;5049073;28;20076;-67
2023/09/19 08:50:28;;;;;;;7.50;2.20;;;16.30;99.90;;;;;;5047581;28;20037;-70
2023/09/19 08:52:55;;;;;;;11.20;2.60;;;16.30;99.90;;;;;;5060446;28;20056;-68
2023/09/19 08:55:27;;;;;;;8.23;3.17;;;16.50;99.90;;;;;;5051278;28;20499;-67
2023/09/19 08:57:59;;;;;;;9.73;2.72;;;16.40;99.90;;;;;;5052165;28;20056;-68
2023/09/19 09:00:27;;;;;;;9.57;2.70;;;16.40;99.90;;;;;;5050288;28;20036;-67
2023/09/19 09:02:55;;;;;;;10.15;2.25;;;16.50;99.90;;;;;;5051276;28;20048;-67
2023/09/19 09:05:22;;;;;;;12.48;2.88;;;16.50;99.90;;;;;;5053443;28;20198;-68
2023/09/19 09:07:54;;;;;;;12.95;2.33;;;16.50;99.90;;;;;;5052135;28;20048;-67
2023/09/19 09:10:22;;;;;;;6.50;2.95;;;16.70;99.90;;;;;;5050636;28;20067;-68
2023/09/19 09:12:54;;;;;;;10.88;2.67;;;16.60;99.90;;;;;;5035468;28;20041;-68
2023/09/19 09:15:23;;;;;;;11.05;2.40;;;16.70;99.90;;;;;;5049922;28;20063;-69
2023/09/19 09:17:50;;;;;;;7.82;2.08;;;16.70;99.90;;;;;;5034728;28;20045;-68
2023/09/19 09:20:17;;;;;;;10.07;2.38;;;16.70;99.90;;;;;;5051072;28;20052;-70
2023/09/19 09:23:00;;;;;;;11.10;2.17;;;16.70;99.90;;;;;;5052292;28;20146;-67
2023/09/19 09:25:54;;;;;;;10.90;2.15;;;16.60;99.90;;;;;;5050940;28;20045;-67
2023/09/19 09:28:25;;;;;;;13.20;2.40;;;16.80;99.90;;;;;;5035227;28;20051;-69
2023/09/19 09:30:51;;;;;;;10.70;2.05;;;16.90;99.90;;;;;;5049399;28;20133;-69
2023/09/19 09:33:17;;;;;;;10.93;2.20;;;17.00;99.90;;;;;;5050252;28;20639;-68
2023/09/19 09:35:52;;;;;;;8.07;2.10;;;17.10;99.90;;;;;;5051763;28;20032;-68
2023/09/19 09:38:27;;;;;;;7.32;2.20;;;17.10;99.90;;;;;;5035010;28;20110;-68
2023/09/19 09:41:06;;;;;;;9.80;2.13;;;17.10;99.90;;;;;;5050891;28;20037;-69
2023/09/19 09:43:39;;;;;;;8.90;1.90;;;17.10;99.90;;;;;;5051834;28;20056;-69
2023/09/19 09:49:14;;;;;;;12.40;2.25;;;17.20;99.90;;;;;;5050204;28;20060;-69
2023/09/19 09:51:33;;;;;;;15.40;2.13;;;17.30;99.90;;;;;;5051237;28;20752;-70
2023/09/19 09:54:16;;;;;;;9.02;2.20;;;17.50;99.90;;;;;;5050905;28;20127;-69
2023/09/19 09:57:06;;;;;;;9.18;2.03;;;17.50;99.90;;;;;;5050950;28;20037;-70
2023/09/19 09:59:55;;;;;;;10.88;2.33;;;17.50;99.90;;;;;;5049807;28;20040;-68
2023/09/19 10:02:29;;;;;;;9.50;1.73;;;17.50;99.90;;;;;;5033404;28;20102;-69
2023/09/19 10:05:14;;;;;;;8.93;2.20;;;17.70;99.90;;;;;;5050105;28;20144;-69
2023/09/19 10:07:45;;;;;;;12.13;1.67;;;17.70;99.90;;;;;;5051417;28;20362;-69
2023/09/19 10:10:24;;;;;;;11.32;2.20;;;17.80;99.90;;;;;;5049785;28;20513;-68
2023/09/19 10:12:56;;;;;;;8.13;2.10;;;17.90;99.90;;;;;;5051048;28;20044;-69
2023/09/19 10:15:24;;;;;;;8.10;2.13;;;17.80;99.90;;;;;;5032527;28;20033;-69
2023/09/19 10:17:56;;;;;;;13.43;2.65;;;18.00;99.90;;;;;;5050349;28;20072;-73
2023/09/19 10:20:24;;;;;;;9.68;2.28;;;17.90;99.90;;;;;;5050480;28;20132;-70
2023/09/19 10:22:57;;;;;;;8.55;2.30;;;18.00;99.90;;;;;;5051122;28;20068;-71
2023/09/19 10:25:28;;;;;;;11.32;2.40;;;18.00;99.90;;;;;;5049573;28;20045;-69
2023/09/19 10:27:57;;;;;;;9.73;2.13;;;18.10;99.90;;;;;;5050878;28;20052;-70
2023/09/19 10:30:24;;;;;;;10.20;1.92;;;18.10;99.90;;;;;;5031623;28;20064;-69
2023/09/19 10:33:00;;;;;;;11.90;2.20;;;18.10;99.90;;;;;;5049686;28;20044;-68
2023/09/19 10:35:26;;;;;;;11.10;2.42;;;18.30;99.90;;;;;;5047233;28;20045;-72
2023/09/19 10:37:56;;;;;;;9.80;2.40;;;18.30;99.90;;;;;;5030849;28;20102;-69
2023/09/19 10:40:26;;;;;;;10.82;2.30;;;18.40;99.90;;;;;;5029497;28;20034;-72
2023/09/19 10:42:53;;;;;;;5.55;1.58;;;18.30;99.90;;;;;;5030497;28;20116;-70
2023/09/19 10:45:20;;;;;;;12.18;2.42;;;18.10;99.90;;;;;;5028581;28;20156;-68
2023/09/19 10:47:47;;;;;;;10.38;2.40;;;18.10;99.90;;;;;;5029517;28;20132;-69
2023/09/19 10:50:21;;;;;;;11.13;1.85;;;18.10;99.90;;;;;;5029640;28;20045;-68
2023/09/19 10:52:50;;;;;;;11.32;2.63;;;18.10;99.90;;;;;;5030812;28;20037;-69
2023/09/19 10:55:22;;;;;;;11.82;2.40;;;18.10;99.90;;;;;;5029079;28;20041;-69
2023/09/19 10:57:48;;;;;;;10.43;2.88;;;18.10;99.90;;;;;;5030412;28;20088;-68
2023/09/19 11:00:23;;;;;;;8.52;2.40;;;18.10;99.90;;;;;;5028499;28;20056;-68
2023/09/19 11:03:16;;;;;;;6.97;1.75;;;18.10;99.90;;;;;;5029437;28;20053;-68
2023/09/19 11:05:42;;;;;;;9.10;2.30;;;18.30;99.90;;;;;;5030525;28;20053;-69
2023/09/19 11:08:09;;;;;;;10.95;2.35;;;18.40;99.90;;;;;;5030028;28;20045;-69
2023/09/19 11:10:47;;;;;;;9.80;2.70;;;18.40;99.90;;;;;;5029655;28;20045;-68
2023/09/19 11:13:25;;;;;;;10.13;2.70;;;18.40;97.10;;;;;;5030302;28;20049;-69
2023/09/19 11:16:00;;;;;;;7.53;1.90;;;18.40;99.20;;;;;;5028086;28;20502;-67
2023/09/19 11:18:41;;;;;;;10.35;2.13;;;18.40;99.90;;;;;;5028787;28;20079;-68
2023/09/19 11:21:31;;;;;;;9.82;2.10;;;18.30;99.90;;;;;;5030055;28;20049;-69
2023/09/19 11:24:26;;;;;;;10.02;1.88;;;18.40;98.30;;;;;;5031395;28;20485;-68
2023/09/19 11:27:10;;;;;;;8.05;2.08;;;18.40;97.70;;;;;;5029743;28;20122;-71
2023/09/19 11:29:36;;;;;;;7.50;1.85;;;18.40;96.10;;;;;;5028058;28;20132;-69
2023/09/19 11:32:01;;;;;;;9.93;2.00;;;18.60;99.90;;;;;;5028575;28;20211;-69
2023/09/19 11:34:36;;;;;;;7.20;1.90;;;18.70;97.10;;;;;;5029598;28;20045;-68
2023/09/19 11:37:34;;;;;;;6.40;1.73;;;18.80;99.90;;;;;;5045705;28;20041;-68
2023/09/19 11:40:15;;;;;;;6.82;1.83;;;18.90;98.60;;;;;;5048210;28;20187;-69
2023/09/19 11:42:42;;;;;;;15.05;2.42;;;18.90;95.40;;;;;;5051230;28;20166;-69
2023/09/19 11:45:29;;;;;;;8.48;1.83;;;19.00;95.80;;;;;;5030988;28;20045;-68
2023/09/19 11:47:57;;;;;;;11.60;2.15;;;19.00;97.60;;;;;;5048441;28;20086;-70
2023/09/19 11:50:24;;;;;;;9.57;1.73;;;19.00;96.60;;;;;;5048818;28;20465;-67
2023/09/19 11:52:51;;;;;;;5.97;1.50;;;19.10;96.80;;;;;;5032905;28;20029;-68
2023/09/19 11:55:21;;;;;;;10.27;2.00;;;19.10;95.10;;;;;;5048121;28;20688;-70
2023/09/19 11:57:50;;;;;;;8.55;2.08;;;19.00;95.80;;;;;;5049340;28;20047;-68
2023/09/19 12:00:21;;;;;;;7.60;1.92;;;19.00;97.50;;;;;;5046959;28;20036;-69
2023/09/19 12:02:50;;;;;;;10.30;2.10;;;19.20;97.60;;;;;;5048281;28;20196;-70
2023/09/19 12:05:16;;;;;;;9.43;2.33;;;19.20;95.00;;;;;;5048920;28;20226;-68
2023/09/19 12:07:45;;;;;;;8.45;1.63;;;19.20;97.20;;;;;;5049632;28;20041;-73
2023/09/19 12:10:12;;;;;;;8.05;1.73;;;19.10;93.60;;;;;;5048067;28;20552;-70
2023/09/19 12:12:37;;;;;;;12.48;2.05;;;19.20;95.90;;;;;;5032685;28;20397;-69
2023/09/19 12:15:03;;;;;;;6.55;1.65;;;19.20;97.40;;;;;;5047339;28;20041;-70
2023/09/19 12:17:36;;;;;;;8.05;1.75;;;19.40;97.30;;;;;;5048167;28;20110;-69
2023/09/19 12:20:15;;;;;;;9.35;2.50;;;19.40;93.70;;;;;;5048532;28;20041;-69
2023/09/19 12:22:46;;;;;;;8.70;2.13;;;19.30;95.40;;;;;;5049173;28;20077;-71
2023/09/19 12:25:12;;;;;;;9.60;1.90;;;19.30;96.30;;;;;;5031193;28;20088;-70
2023/09/19 12:27:46;;;;;;;10.45;1.95;;;19.30;95.80;;;;;;5048332;28;20044;-69
2023/09/19 12:30:17;;;;;;;7.45;2.00;;;19.20;96.40;;;;;;5046649;28;20048;-71
2023/09/19 12:32:44;;;;;;;6.60;1.55;;;19.00;96.10;;;;;;5048069;28;20114;-69
2023/09/19 12:35:17;;;;;;;7.55;1.70;;;18.90;96.60;;;;;;5048021;28;20102;-70
2023/09/19 12:37:53;;;;;;;9.23;2.10;;;18.70;97.10;;;;;;5049025;28;20144;-72
2023/09/19 12:40:27;;;;;;;10.90;2.40;;;18.50;92.50;;;;;;5047741;28;20435;-68
2023/09/19 12:42:58;;;;;;;10.00;2.80;;;18.40;96.40;;;;;;5048722;28;20365;-69
2023/09/19 12:45:24;;;;;;;6.75;1.85;;;18.30;96.30;;;;;;5046821;28;20048;-69
2023/09/19 12:48:20;;;;;;;8.02;1.73;;;18.30;97.80;;;;;;5048293;28;20053;-68
2023/09/19 12:51:09;;;;;;;9.70;1.92;;;18.30;95.50;;;;;;5048524;28;20045;-68
2023/09/19 12:53:43;;;;;;;10.23;2.30;;;18.40;97.40;;;;;;5032044;28;20092;-67
2023/09/19 12:56:13;;;;;;;6.82;1.55;;;18.40;98.40;;;;;;5048093;28;20158;-70
2023/09/19 12:58:56;;;;;;;7.95;1.95;;;18.50;98.50;;;;;;5048759;28;20128;-70
2023/09/19 13:01:29;;;;;;;8.68;1.83;;;18.50;94.20;;;;;;5046484;28;20049;-69